sensor_id;sensor_type;location;lat;lon;timestamp;temperature;humidity
15834;DHT22;8017;50.812;4.934;2022-09-09T00:02:52;15.30;99.90
15834;DHT22;8017;50.812;4.934;2022-09-09T00:06:01;15.30;99.90
15834;DHT22;8017;50.812;4.934;2022-09-09T00:09:11;15.20;99.90
15834;DHT22;8017;50.812;4.934;2022-09-09T00:12:18;15.20;99.90
15834;DHT22;8017;50.812;4.934;2022-09-09T00:15:34;15.20;99.90
15834;DHT22;8017;50.812;4.934;2022-09-09T00:18:50;15.10;99.90
15834;DHT22;8017;50.812;4.934;2022-09-09T00:22:01;15.00;99.90
15834;DHT22;8017;50.812;4.934;2022-09-09T00:25:11;15.00;99.90
15834;DHT22;8017;50.812;4.934;2022-09-09T00:28:16;15.00;99.90
15834;DHT22;8017;50.812;4.934;2022-09-09T00:31:23;15.00;99.90
15834;DHT22;8017;50.812;4.934;2022-09-09T00:34:27;15.00;99.90
15834;DHT22;8017;50.812;4.934;2022-09-09T00:37:29;15.00;99.90
15834;DHT22;8017;50.812;4.934;2022-09-09T00:40:38;15.00;99.90
15834;DHT22;8017;50.812;4.934;2022-09-09T00:43:46;15.10;99.90
15834;DHT22;8017;50.812;4.934;2022-09-09T00:46:59;15.10;99.90
15834;DHT22;8017;50.812;4.934;2022-09-09T00:50:17;15.00;99.90
15834;DHT22;8017;50.812;4.934;2022-09-09T00:53:32;15.10;99.90
15834;DHT22;8017;50.812;4.934;2022-09-09T00:56:41;15.20;99.90
15834;DHT22;8017;50.812;4.934;2022-09-09T00:59:48;15.30;99.90
15834;DHT22;8017;50.812;4.934;2022-09-09T01:03:21;15.30;99.90
15834;DHT22;8017;50.812;4.934;2022-09-09T01:06:29;15.30;99.90
15834;DHT22;8017;50.812;4.934;2022-09-09T01:09:38;15.30;99.90
15834;DHT22;8017;50.812;4.934;2022-09-09T01:12:46;15.30;99.90
15834;DHT22;8017;50.812;4.934;2022-09-09T01:15:49;15.30;99.90
15834;DHT22;8017;50.812;4.934;2022-09-09T01:18:56;15.30;99.90
15834;DHT22;8017;50.812;4.934;2022-09-09T01:22:03;15.30;99.90
15834;DHT22;8017;50.812;4.934;2022-09-09T01:25:22;15.10;99.90
15834;DHT22;8017;50.812;4.934;2022-09-09T01:28:28;15.10;99.90
15834;DHT22;8017;50.812;4.934;2022-09-09T01:31:34;15.10;99.90
15834;DHT22;8017;50.812;4.934;2022-09-09T01:34:39;15.10;99.90
15834;DHT22;8017;50.812;4.934;2022-09-09T01:37:42;15.30;99.90
15834;DHT22;8017;50.812;4.934;2022-09-09T01:40:44;15.30;99.90
15834;DHT22;8017;50.812;4.934;2022-09-09T01:43:47;15.30;99.90
15834;DHT22;8017;50.812;4.934;2022-09-09T01:46:49;15.20;99.90
15834;DHT22;8017;50.812;4.934;2022-09-09T01:49:51;15.20;99.90
15834;DHT22;8017;50.812;4.934;2022-09-09T01:52:56;15.40;99.90
15834;DHT22;8017;50.812;4.934;2022-09-09T01:56:05;15.50;99.90
15834;DHT22;8017;50.812;4.934;2022-09-09T01:59:24;15.50;99.90
15834;DHT22;8017;50.812;4.934;2022-09-09T02:02:32;15.50;99.90
15834;DHT22;8017;50.812;4.934;2022-09-09T02:05:38;15.50;99.90
15834;DHT22;8017;50.812;4.934;2022-09-09T02:08:42;15.50;99.90
15834;DHT22;8017;50.812;4.934;2022-09-09T02:11:46;15.50;99.90
15834;DHT22;8017;50.812;4.934;2022-09-09T02:14:55;15.50;99.90
15834;DHT22;8017;50.812;4.934;2022-09-09T02:17:58;15.50;99.90
15834;DHT22;8017;50.812;4.934;2022-09-09T02:21:01;15.40;99.90
15834;DHT22;8017;50.812;4.934;2022-09-09T02:24:06;15.40;99.90
15834;DHT22;8017;50.812;4.934;2022-09-09T02:27:10;15.40;99.90
15834;DHT22;8017;50.812;4.934;2022-09-09T02:30:15;15.40;99.90
15834;DHT22;8017;50.812;4.934;2022-09-09T02:33:17;15.50;99.90
15834;DHT22;8017;50.812;4.934;2022-09-09T02:36:19;15.40;99.90
15834;DHT22;8017;50.812;4.934;2022-09-09T02:39:23;15.40;99.90
15834;DHT22;8017;50.812;4.934;2022-09-09T02:42:25;15.40;99.90
15834;DHT22;8017;50.812;4.934;2022-09-09T02:45:34;15.30;99.90
15834;DHT22;8017;50.812;4.934;2022-09-09T02:48:44;15.30;99.90
15834;DHT22;8017;50.812;4.934;2022-09-09T02:51:53;15.30;99.90
15834;DHT22;8017;50.812;4.934;2022-09-09T02:55:02;15.30;99.90
15834;DHT22;8017;50.812;4.934;2022-09-09T02:58:08;15.30;99.90
15834;DHT22;8017;50.812;4.934;2022-09-09T03:01:13;15.30;99.90
15834;DHT22;8017;50.812;4.934;2022-09-09T03:04:15;15.30;99.90
15834;DHT22;8017;50.812;4.934;2022-09-09T03:07:17;15.30;99.90
15834;DHT22;8017;50.812;4.934;2022-09-09T03:10:19;15.20;99.90
15834;DHT22;8017;50.812;4.934;2022-09-09T03:13:21;15.20;99.90
15834;DHT22;8017;50.812;4.934;2022-09-09T03:16:24;15.30;99.90
15834;DHT22;8017;50.812;4.934;2022-09-09T03:19:26;15.30;99.90
15834;DHT22;8017;50.812;4.934;2022-09-09T03:22:29;15.30;99.90
15834;DHT22;8017;50.812;4.934;2022-09-09T03:25:30;15.30;99.90
15834;DHT22;8017;50.812;4.934;2022-09-09T03:28:34;15.30;99.90
15834;DHT22;8017;50.812;4.934;2022-09-09T03:31:37;15.30;99.90
15834;DHT22;8017;50.812;4.934;2022-09-09T03:34:39;15.30;99.90
15834;DHT22;8017;50.812;4.934;2022-09-09T03:37:41;15.30;99.90
15834;DHT22;8017;50.812;4.934;2022-09-09T03:40:49;15.30;99.90
15834;DHT22;8017;50.812;4.934;2022-09-09T03:43:52;15.30;99.90
15834;DHT22;8017;50.812;4.934;2022-09-09T03:46:55;15.30;99.90
15834;DHT22;8017;50.812;4.934;2022-09-09T03:49:57;15.40;99.90
15834;DHT22;8017;50.812;4.934;2022-09-09T03:52:59;15.40;99.90
15834;DHT22;8017;50.812;4.934;2022-09-09T03:56:01;15.50;99.90
15834;DHT22;8017;50.812;4.934;2022-09-09T03:59:03;15.40;99.90
15834;DHT22;8017;50.812;4.934;2022-09-09T04:02:06;15.40;99.90
15834;DHT22;8017;50.812;4.934;2022-09-09T04:05:09;15.40;99.90
15834;DHT22;8017;50.812;4.934;2022-09-09T04:08:11;15.40;99.90
15834;DHT22;8017;50.812;4.934;2022-09-09T04:11:13;15.30;99.90
15834;DHT22;8017;50.812;4.934;2022-09-09T04:14:15;15.30;99.90
15834;DHT22;8017;50.812;4.934;2022-09-09T04:17:19;15.20;99.90
15834;DHT22;8017;50.812;4.934;2022-09-09T04:20:20;15.20;99.90
15834;DHT22;8017;50.812;4.934;2022-09-09T04:23:25;15.20;99.90
15834;DHT22;8017;50.812;4.934;2022-09-09T04:26:27;15.20;99.90
15834;DHT22;8017;50.812;4.934;2022-09-09T04:29:29;15.20;99.90
15834;DHT22;8017;50.812;4.934;2022-09-09T04:32:33;15.20;99.90
15834;DHT22;8017;50.812;4.934;2022-09-09T04:35:38;15.10;99.90
15834;DHT22;8017;50.812;4.934;2022-09-09T04:38:40;15.10;99.90
15834;DHT22;8017;50.812;4.934;2022-09-09T04:41:42;15.10;99.90
15834;DHT22;8017;50.812;4.934;2022-09-09T04:44:44;15.10;99.90
15834;DHT22;8017;50.812;4.934;2022-09-09T04:47:47;15.00;99.90
15834;DHT22;8017;50.812;4.934;2022-09-09T04:50:56;15.10;99.90
15834;DHT22;8017;50.812;4.934;2022-09-09T04:53:58;15.20;99.90
15834;DHT22;8017;50.812;4.934;2022-09-09T04:57:00;15.30;99.90
15834;DHT22;8017;50.812;4.934;2022-09-09T05:00:03;15.40;99.90
15834;DHT22;8017;50.812;4.934;2022-09-09T05:03:07;15.50;99.90
15834;DHT22;8017;50.812;4.934;2022-09-09T05:06:11;15.60;99.90
15834;DHT22;8017;50.812;4.934;2022-09-09T05:09:13;15.50;99.90
15834;DHT22;8017;50.812;4.934;2022-09-09T05:12:15;15.40;99.90
15834;DHT22;8017;50.812;4.934;2022-09-09T05:15:18;15.40;99.90
15834;DHT22;8017;50.812;4.934;2022-09-09T05:18:22;15.30;99.90
15834;DHT22;8017;50.812;4.934;2022-09-09T05:21:25;15.30;99.90
15834;DHT22;8017;50.812;4.934;2022-09-09T05:24:27;15.30;99.90
15834;DHT22;8017;50.812;4.934;2022-09-09T05:27:29;15.30;99.90
15834;DHT22;8017;50.812;4.934;2022-09-09T05:30:32;15.20;99.90
15834;DHT22;8017;50.812;4.934;2022-09-09T05:33:36;15.40;99.90
15834;DHT22;8017;50.812;4.934;2022-09-09T05:36:41;15.40;99.90
15834;DHT22;8017;50.812;4.934;2022-09-09T05:39:42;15.40;99.90
15834;DHT22;8017;50.812;4.934;2022-09-09T05:42:44;15.40;99.90
15834;DHT22;8017;50.812;4.934;2022-09-09T05:45:46;15.50;99.90
15834;DHT22;8017;50.812;4.934;2022-09-09T05:48:51;15.50;99.90
15834;DHT22;8017;50.812;4.934;2022-09-09T05:51:53;15.60;99.90
15834;DHT22;8017;50.812;4.934;2022-09-09T05:54:55;15.60;99.90
15834;DHT22;8017;50.812;4.934;2022-09-09T05:57:57;15.70;99.90
15834;DHT22;8017;50.812;4.934;2022-09-09T06:01:03;15.80;99.90
15834;DHT22;8017;50.812;4.934;2022-09-09T06:04:08;15.90;99.90
15834;DHT22;8017;50.812;4.934;2022-09-09T06:07:10;16.00;99.90
15834;DHT22;8017;50.812;4.934;2022-09-09T06:10:12;16.10;99.90
15834;DHT22;8017;50.812;4.934;2022-09-09T06:13:14;16.20;99.90
15834;DHT22;8017;50.812;4.934;2022-09-09T06:16:18;16.30;99.90
15834;DHT22;8017;50.812;4.934;2022-09-09T06:19:22;16.60;99.90
15834;DHT22;8017;50.812;4.934;2022-09-09T06:22:27;17.00;99.90
15834;DHT22;8017;50.812;4.934;2022-09-09T06:25:29;17.10;99.90
15834;DHT22;8017;50.812;4.934;2022-09-09T06:28:31;17.40;99.90
15834;DHT22;8017;50.812;4.934;2022-09-09T06:31:34;17.70;99.90
15834;DHT22;8017;50.812;4.934;2022-09-09T06:34:38;17.70;99.90
15834;DHT22;8017;50.812;4.934;2022-09-09T06:37:44;17.70;99.90
15834;DHT22;8017;50.812;4.934;2022-09-09T06:40:52;17.70;99.90
15834;DHT22;8017;50.812;4.934;2022-09-09T06:43:56;17.70;99.90
15834;DHT22;8017;50.812;4.934;2022-09-09T06:46:58;17.70;99.90
15834;DHT22;8017;50.812;4.934;2022-09-09T06:50:01;17.60;99.90
15834;DHT22;8017;50.812;4.934;2022-09-09T06:53:03;17.60;99.90
15834;DHT22;8017;50.812;4.934;2022-09-09T06:56:19;17.60;99.90
15834;DHT22;8017;50.812;4.934;2022-09-09T06:59:22;17.60;99.90
15834;DHT22;8017;50.812;4.934;2022-09-09T07:02:24;17.80;99.90
15834;DHT22;8017;50.812;4.934;2022-09-09T07:05:27;17.90;99.90
15834;DHT22;8017;50.812;4.934;2022-09-09T07:08:29;18.20;99.90
15834;DHT22;8017;50.812;4.934;2022-09-09T07:11:33;18.50;99.90
15834;DHT22;8017;50.812;4.934;2022-09-09T07:14:35;18.80;99.90
15834;DHT22;8017;50.812;4.934;2022-09-09T07:17:38;18.70;99.90
15834;DHT22;8017;50.812;4.934;2022-09-09T07:20:41;18.60;99.90
15834;DHT22;8017;50.812;4.934;2022-09-09T07:23:43;18.90;99.90
15834;DHT22;8017;50.812;4.934;2022-09-09T07:26:45;18.80;99.90
15834;DHT22;8017;50.812;4.934;2022-09-09T07:29:47;18.60;99.90
15834;DHT22;8017;50.812;4.934;2022-09-09T07:32:51;18.50;99.90
15834;DHT22;8017;50.812;4.934;2022-09-09T07:35:54;18.30;99.90
15834;DHT22;8017;50.812;4.934;2022-09-09T07:39:05;18.40;99.90
15834;DHT22;8017;50.812;4.934;2022-09-09T07:42:07;18.20;99.90
15834;DHT22;8017;50.812;4.934;2022-09-09T07:45:10;18.10;99.90
15834;DHT22;8017;50.812;4.934;2022-09-09T07:48:12;18.20;99.90
15834;DHT22;8017;50.812;4.934;2022-09-09T07:51:18;18.20;99.90
15834;DHT22;8017;50.812;4.934;2022-09-09T07:54:20;18.50;99.90
15834;DHT22;8017;50.812;4.934;2022-09-09T07:57:24;18.70;99.90
15834;DHT22;8017;50.812;4.934;2022-09-09T08:00:26;18.90;99.90
15834;DHT22;8017;50.812;4.934;2022-09-09T08:03:29;19.00;99.90
15834;DHT22;8017;50.812;4.934;2022-09-09T08:06:35;18.90;99.90
15834;DHT22;8017;50.812;4.934;2022-09-09T08:09:37;19.00;99.90
15834;DHT22;8017;50.812;4.934;2022-09-09T08:12:40;19.00;99.90
15834;DHT22;8017;50.812;4.934;2022-09-09T08:15:42;19.20;99.90
15834;DHT22;8017;50.812;4.934;2022-09-09T08:18:44;19.60;99.90
15834;DHT22;8017;50.812;4.934;2022-09-09T08:21:49;19.40;99.90
15834;DHT22;8017;50.812;4.934;2022-09-09T08:24:51;19.50;99.90
15834;DHT22;8017;50.812;4.934;2022-09-09T08:27:53;19.70;99.90
15834;DHT22;8017;50.812;4.934;2022-09-09T08:30:55;19.70;99.90
15834;DHT22;8017;50.812;4.934;2022-09-09T08:33:58;19.60;99.90
15834;DHT22;8017;50.812;4.934;2022-09-09T08:37:02;19.60;99.90
15834;DHT22;8017;50.812;4.934;2022-09-09T08:40:05;19.70;99.90
15834;DHT22;8017;50.812;4.934;2022-09-09T08:43:07;19.80;99.90
15834;DHT22;8017;50.812;4.934;2022-09-09T08:46:12;20.10;99.90
15834;DHT22;8017;50.812;4.934;2022-09-09T08:53:02;20.70;99.90
15834;DHT22;8017;50.812;4.934;2022-09-09T08:56:10;20.70;99.90
15834;DHT22;8017;50.812;4.934;2022-09-09T08:59:17;20.80;99.90
15834;DHT22;8017;50.812;4.934;2022-09-09T09:02:24;21.00;99.90
15834;DHT22;8017;50.812;4.934;2022-09-09T09:05:32;21.00;99.90
15834;DHT22;8017;50.812;4.934;2022-09-09T09:08:43;20.80;99.90
15834;DHT22;8017;50.812;4.934;2022-09-09T09:11:48;20.50;99.90
15834;DHT22;8017;50.812;4.934;2022-09-09T09:14:51;20.30;99.90
15834;DHT22;8017;50.812;4.934;2022-09-09T09:17:55;20.30;99.90
15834;DHT22;8017;50.812;4.934;2022-09-09T09:21:03;20.60;99.90
15834;DHT22;8017;50.812;4.934;2022-09-09T09:24:16;20.50;99.90
15834;DHT22;8017;50.812;4.934;2022-09-09T09:27:31;20.30;99.90
15834;DHT22;8017;50.812;4.934;2022-09-09T09:30:38;19.90;99.90
15834;DHT22;8017;50.812;4.934;2022-09-09T09:33:46;19.60;99.90
15834;DHT22;8017;50.812;4.934;2022-09-09T09:36:53;19.40;99.90
15834;DHT22;8017;50.812;4.934;2022-09-09T09:40:08;19.00;99.90
15834;DHT22;8017;50.812;4.934;2022-09-09T09:43:20;18.90;99.90
15834;DHT22;8017;50.812;4.934;2022-09-09T09:46:24;18.70;99.90
15834;DHT22;8017;50.812;4.934;2022-09-09T09:49:27;18.40;99.90
15834;DHT22;8017;50.812;4.934;2022-09-09T09:52:30;18.20;99.90
15834;DHT22;8017;50.812;4.934;2022-09-09T09:55:35;18.00;99.90
15834;DHT22;8017;50.812;4.934;2022-09-09T09:58:49;18.00;99.90
15834;DHT22;8017;50.812;4.934;2022-09-09T10:01:52;18.20;99.90
15834;DHT22;8017;50.812;4.934;2022-09-09T10:05:02;18.40;99.90
15834;DHT22;8017;50.812;4.934;2022-09-09T10:08:09;18.50;99.90
15834;DHT22;8017;50.812;4.934;2022-09-09T10:11:30;18.60;99.90
15834;DHT22;8017;50.812;4.934;2022-09-09T10:14:41;18.60;99.90
15834;DHT22;8017;50.812;4.934;2022-09-09T10:17:54;18.80;99.90
15834;DHT22;8017;50.812;4.934;2022-09-09T10:21:03;19.00;99.90
15834;DHT22;8017;50.812;4.934;2022-09-09T10:28:07;19.10;99.90
15834;DHT22;8017;50.812;4.934;2022-09-09T10:31:19;19.20;99.90
15834;DHT22;8017;50.812;4.934;2022-09-09T10:34:37;19.40;99.90
15834;DHT22;8017;50.812;4.934;2022-09-09T10:41:20;19.50;99.90
15834;DHT22;8017;50.812;4.934;2022-09-09T10:44:48;19.40;99.90
15834;DHT22;8017;50.812;4.934;2022-09-09T10:48:14;19.40;99.90
15834;DHT22;8017;50.812;4.934;2022-09-09T10:51:23;19.70;99.90
15834;DHT22;8017;50.812;4.934;2022-09-09T10:54:36;19.90;99.90
15834;DHT22;8017;50.812;4.934;2022-09-09T10:57:41;20.00;99.90
15834;DHT22;8017;50.812;4.934;2022-09-09T11:00:47;20.00;99.90
15834;DHT22;8017;50.812;4.934;2022-09-09T11:03:55;20.20;99.90
15834;DHT22;8017;50.812;4.934;2022-09-09T11:07:02;20.40;99.90
15834;DHT22;8017;50.812;4.934;2022-09-09T11:10:18;20.60;99.90
15834;DHT22;8017;50.812;4.934;2022-09-09T11:13:26;20.90;99.90
15834;DHT22;8017;50.812;4.934;2022-09-09T11:16:36;21.00;99.90
15834;DHT22;8017;50.812;4.934;2022-09-09T11:19:43;20.90;99.90
15834;DHT22;8017;50.812;4.934;2022-09-09T11:22:50;20.70;99.90
15834;DHT22;8017;50.812;4.934;2022-09-09T11:25:55;20.80;99.90
15834;DHT22;8017;50.812;4.934;2022-09-09T11:29:15;20.60;99.90
15834;DHT22;8017;50.812;4.934;2022-09-09T11:36:01;20.50;99.90
15834;DHT22;8017;50.812;4.934;2022-09-09T11:39:22;20.70;99.90
15834;DHT22;8017;50.812;4.934;2022-09-09T11:42:30;21.10;99.90
15834;DHT22;8017;50.812;4.934;2022-09-09T11:45:33;21.20;99.90
15834;DHT22;8017;50.812;4.934;2022-09-09T11:52:38;21.50;99.90
15834;DHT22;8017;50.812;4.934;2022-09-09T11:55:42;21.50;99.90
15834;DHT22;8017;50.812;4.934;2022-09-09T11:58:54;21.30;99.90
15834;DHT22;8017;50.812;4.934;2022-09-09T12:01:58;21.00;99.90
15834;DHT22;8017;50.812;4.934;2022-09-09T12:05:05;20.80;99.90
15834;DHT22;8017;50.812;4.934;2022-09-09T12:08:15;20.90;99.90
15834;DHT22;8017;50.812;4.934;2022-09-09T12:11:26;20.80;99.90
15834;DHT22;8017;50.812;4.934;2022-09-09T12:14:36;20.70;99.90
15834;DHT22;8017;50.812;4.934;2022-09-09T12:17:42;21.00;99.90
15834;DHT22;8017;50.812;4.934;2022-09-09T12:20:54;21.10;99.90
15834;DHT22;8017;50.812;4.934;2022-09-09T12:24:04;21.30;99.90
15834;DHT22;8017;50.812;4.934;2022-09-09T12:27:14;21.30;99.90
15834;DHT22;8017;50.812;4.934;2022-09-09T12:30:20;21.30;99.90
15834;DHT22;8017;50.812;4.934;2022-09-09T12:33:23;21.30;99.90
15834;DHT22;8017;50.812;4.934;2022-09-09T12:36:29;21.00;99.90
15834;DHT22;8017;50.812;4.934;2022-09-09T12:39:37;20.80;99.90
15834;DHT22;8017;50.812;4.934;2022-09-09T12:42:42;20.90;99.90
15834;DHT22;8017;50.812;4.934;2022-09-09T12:45:44;21.10;99.90
15834;DHT22;8017;50.812;4.934;2022-09-09T12:48:46;21.30;99.90
15834;DHT22;8017;50.812;4.934;2022-09-09T12:51:49;21.40;99.90
15834;DHT22;8017;50.812;4.934;2022-09-09T12:54:53;21.70;99.90
15834;DHT22;8017;50.812;4.934;2022-09-09T12:57:55;21.90;99.90
15834;DHT22;8017;50.812;4.934;2022-09-09T13:01:01;22.20;99.90
15834;DHT22;8017;50.812;4.934;2022-09-09T13:04:20;22.50;99.90
15834;DHT22;8017;50.812;4.934;2022-09-09T13:07:22;22.60;99.90
15834;DHT22;8017;50.812;4.934;2022-09-09T13:10:29;22.10;99.90
15834;DHT22;8017;50.812;4.934;2022-09-09T13:13:35;22.00;99.90
15834;DHT22;8017;50.812;4.934;2022-09-09T13:16:38;21.60;99.90
15834;DHT22;8017;50.812;4.934;2022-09-09T13:19:45;21.40;99.90
15834;DHT22;8017;50.812;4.934;2022-09-09T13:22:48;21.10;99.90
15834;DHT22;8017;50.812;4.934;2022-09-09T13:25:56;21.00;99.90
15834;DHT22;8017;50.812;4.934;2022-09-09T13:29:17;20.90;99.90
15834;DHT22;8017;50.812;4.934;2022-09-09T13:32:19;20.90;99.90
15834;DHT22;8017;50.812;4.934;2022-09-09T13:35:23;21.20;99.90
15834;DHT22;8017;50.812;4.934;2022-09-09T13:38:30;21.50;99.90
15834;DHT22;8017;50.812;4.934;2022-09-09T13:41:42;21.70;99.90
15834;DHT22;8017;50.812;4.934;2022-09-09T13:44:47;21.90;99.90
15834;DHT22;8017;50.812;4.934;2022-09-09T13:47:51;22.20;99.90
15834;DHT22;8017;50.812;4.934;2022-09-09T13:51:00;22.30;99.90
15834;DHT22;8017;50.812;4.934;2022-09-09T13:54:05;22.40;99.90
15834;DHT22;8017;50.812;4.934;2022-09-09T13:57:17;22.20;99.90
15834;DHT22;8017;50.812;4.934;2022-09-09T14:00:19;22.10;99.90
15834;DHT22;8017;50.812;4.934;2022-09-09T14:03:22;21.80;99.90
15834;DHT22;8017;50.812;4.934;2022-09-09T14:06:24;21.50;99.90
15834;DHT22;8017;50.812;4.934;2022-09-09T14:09:26;21.50;99.90
15834;DHT22;8017;50.812;4.934;2022-09-09T14:12:29;21.30;99.90
15834;DHT22;8017;50.812;4.934;2022-09-09T14:15:31;21.30;99.90
15834;DHT22;8017;50.812;4.934;2022-09-09T14:18:34;21.50;99.90
15834;DHT22;8017;50.812;4.934;2022-09-09T14:21:36;21.60;99.90
15834;DHT22;8017;50.812;4.934;2022-09-09T14:24:38;21.70;99.90
15834;DHT22;8017;50.812;4.934;2022-09-09T14:27:44;22.20;99.90
15834;DHT22;8017;50.812;4.934;2022-09-09T14:30:47;22.30;99.90
15834;DHT22;8017;50.812;4.934;2022-09-09T14:33:49;22.20;99.90
15834;DHT22;8017;50.812;4.934;2022-09-09T14:36:53;22.00;99.90
15834;DHT22;8017;50.812;4.934;2022-09-09T14:39:55;21.80;99.90
15834;DHT22;8017;50.812;4.934;2022-09-09T14:42:58;21.70;99.90
15834;DHT22;8017;50.812;4.934;2022-09-09T14:46:05;21.90;99.90
15834;DHT22;8017;50.812;4.934;2022-09-09T14:49:07;21.90;99.90
15834;DHT22;8017;50.812;4.934;2022-09-09T14:52:10;21.70;99.90
15834;DHT22;8017;50.812;4.934;2022-09-09T14:55:13;21.80;99.90
15834;DHT22;8017;50.812;4.934;2022-09-09T14:58:17;21.50;99.90
15834;DHT22;8017;50.812;4.934;2022-09-09T15:01:19;21.40;99.90
15834;DHT22;8017;50.812;4.934;2022-09-09T15:04:22;21.40;99.90
15834;DHT22;8017;50.812;4.934;2022-09-09T15:07:25;21.70;99.90
15834;DHT22;8017;50.812;4.934;2022-09-09T15:10:28;21.70;99.90
15834;DHT22;8017;50.812;4.934;2022-09-09T15:13:33;21.60;99.90
15834;DHT22;8017;50.812;4.934;2022-09-09T15:16:38;21.40;99.90
15834;DHT22;8017;50.812;4.934;2022-09-09T15:19:40;21.40;99.90
15834;DHT22;8017;50.812;4.934;2022-09-09T15:22:42;21.50;99.90
15834;DHT22;8017;50.812;4.934;2022-09-09T15:25:51;21.50;99.90
15834;DHT22;8017;50.812;4.934;2022-09-09T15:28:55;21.50;99.90
15834;DHT22;8017;50.812;4.934;2022-09-09T15:31:59;21.90;99.90
15834;DHT22;8017;50.812;4.934;2022-09-09T15:35:01;21.80;99.90
15834;DHT22;8017;50.812;4.934;2022-09-09T15:38:03;21.40;99.90
15834;DHT22;8017;50.812;4.934;2022-09-09T15:41:06;20.90;99.90
15834;DHT22;8017;50.812;4.934;2022-09-09T15:44:10;20.60;99.90
15834;DHT22;8017;50.812;4.934;2022-09-09T15:47:12;20.40;99.90
15834;DHT22;8017;50.812;4.934;2022-09-09T15:50:15;20.30;99.90
15834;DHT22;8017;50.812;4.934;2022-09-09T15:53:20;20.20;99.90
15834;DHT22;8017;50.812;4.934;2022-09-09T15:56:22;20.10;99.90
15834;DHT22;8017;50.812;4.934;2022-09-09T15:59:27;20.10;99.90
15834;DHT22;8017;50.812;4.934;2022-09-09T16:02:29;20.20;99.90
15834;DHT22;8017;50.812;4.934;2022-09-09T16:05:33;20.20;99.90
15834;DHT22;8017;50.812;4.934;2022-09-09T16:08:35;20.20;99.90
15834;DHT22;8017;50.812;4.934;2022-09-09T16:11:38;20.40;99.90
15834;DHT22;8017;50.812;4.934;2022-09-09T16:14:42;20.60;99.90
15834;DHT22;8017;50.812;4.934;2022-09-09T16:17:45;20.70;99.90
15834;DHT22;8017;50.812;4.934;2022-09-09T16:20:54;20.60;99.90
15834;DHT22;8017;50.812;4.934;2022-09-09T16:23:58;20.60;99.90
15834;DHT22;8017;50.812;4.934;2022-09-09T16:27:00;20.60;99.90
15834;DHT22;8017;50.812;4.934;2022-09-09T16:30:04;20.50;99.90
15834;DHT22;8017;50.812;4.934;2022-09-09T16:33:06;20.60;99.90
15834;DHT22;8017;50.812;4.934;2022-09-09T16:36:10;20.60;99.90
15834;DHT22;8017;50.812;4.934;2022-09-09T16:39:14;20.50;99.90
15834;DHT22;8017;50.812;4.934;2022-09-09T16:42:16;20.50;99.90
15834;DHT22;8017;50.812;4.934;2022-09-09T16:45:19;20.70;99.90
15834;DHT22;8017;50.812;4.934;2022-09-09T16:48:22;20.50;99.90
15834;DHT22;8017;50.812;4.934;2022-09-09T16:51:26;20.40;99.90
15834;DHT22;8017;50.812;4.934;2022-09-09T16:54:28;20.30;99.90
15834;DHT22;8017;50.812;4.934;2022-09-09T16:57:30;20.20;99.90
15834;DHT22;8017;50.812;4.934;2022-09-09T17:00:33;20.00;99.90
15834;DHT22;8017;50.812;4.934;2022-09-09T17:03:35;19.80;99.90
15834;DHT22;8017;50.812;4.934;2022-09-09T17:06:37;19.70;99.90
15834;DHT22;8017;50.812;4.934;2022-09-09T17:09:39;19.60;99.90
15834;DHT22;8017;50.812;4.934;2022-09-09T17:12:41;19.50;99.90
15834;DHT22;8017;50.812;4.934;2022-09-09T17:15:44;19.50;99.90
15834;DHT22;8017;50.812;4.934;2022-09-09T17:18:46;19.40;99.90
15834;DHT22;8017;50.812;4.934;2022-09-09T17:21:49;19.30;99.90
15834;DHT22;8017;50.812;4.934;2022-09-09T17:24:51;19.30;99.90
15834;DHT22;8017;50.812;4.934;2022-09-09T17:27:52;19.10;99.90
15834;DHT22;8017;50.812;4.934;2022-09-09T17:30:56;19.00;99.90
15834;DHT22;8017;50.812;4.934;2022-09-09T17:33:58;18.70;99.90
15834;DHT22;8017;50.812;4.934;2022-09-09T17:37:00;18.50;99.90
15834;DHT22;8017;50.812;4.934;2022-09-09T17:40:02;18.50;99.90
15834;DHT22;8017;50.812;4.934;2022-09-09T17:43:04;18.40;99.90
15834;DHT22;8017;50.812;4.934;2022-09-09T17:46:09;18.30;99.90
15834;DHT22;8017;50.812;4.934;2022-09-09T17:49:13;18.20;99.90
15834;DHT22;8017;50.812;4.934;2022-09-09T17:52:15;18.30;99.90
15834;DHT22;8017;50.812;4.934;2022-09-09T17:55:17;18.30;99.90
15834;DHT22;8017;50.812;4.934;2022-09-09T17:58:19;18.30;99.90
15834;DHT22;8017;50.812;4.934;2022-09-09T18:01:24;18.30;99.90
15834;DHT22;8017;50.812;4.934;2022-09-09T18:04:27;18.10;99.90
15834;DHT22;8017;50.812;4.934;2022-09-09T18:07:29;17.90;99.90
15834;DHT22;8017;50.812;4.934;2022-09-09T18:10:31;17.80;99.90
15834;DHT22;8017;50.812;4.934;2022-09-09T18:13:33;17.80;99.90
15834;DHT22;8017;50.812;4.934;2022-09-09T18:16:36;17.60;99.90
15834;DHT22;8017;50.812;4.934;2022-09-09T18:19:39;17.50;99.90
15834;DHT22;8017;50.812;4.934;2022-09-09T18:22:40;17.40;99.90
15834;DHT22;8017;50.812;4.934;2022-09-09T18:25:43;17.20;99.90
15834;DHT22;8017;50.812;4.934;2022-09-09T18:28:48;17.10;99.90
15834;DHT22;8017;50.812;4.934;2022-09-09T18:31:52;17.00;99.90
15834;DHT22;8017;50.812;4.934;2022-09-09T18:34:54;16.80;99.90
15834;DHT22;8017;50.812;4.934;2022-09-09T18:37:58;16.80;99.90
15834;DHT22;8017;50.812;4.934;2022-09-09T18:41:00;16.70;99.90
15834;DHT22;8017;50.812;4.934;2022-09-09T18:44:04;16.70;99.90
15834;DHT22;8017;50.812;4.934;2022-09-09T18:47:07;16.60;99.90
15834;DHT22;8017;50.812;4.934;2022-09-09T18:50:10;16.60;99.90
15834;DHT22;8017;50.812;4.934;2022-09-09T18:53:12;16.60;99.90
15834;DHT22;8017;50.812;4.934;2022-09-09T18:56:15;16.50;99.90
15834;DHT22;8017;50.812;4.934;2022-09-09T18:59:19;16.50;99.90
15834;DHT22;8017;50.812;4.934;2022-09-09T19:02:23;16.40;99.90
15834;DHT22;8017;50.812;4.934;2022-09-09T19:05:24;16.50;99.90
15834;DHT22;8017;50.812;4.934;2022-09-09T19:08:26;16.50;99.90
15834;DHT22;8017;50.812;4.934;2022-09-09T19:11:28;16.50;99.90
15834;DHT22;8017;50.812;4.934;2022-09-09T19:14:30;16.50;99.90
15834;DHT22;8017;50.812;4.934;2022-09-09T19:17:33;16.60;99.90
15834;DHT22;8017;50.812;4.934;2022-09-09T19:20:36;16.70;99.90
15834;DHT22;8017;50.812;4.934;2022-09-09T19:23:38;16.80;99.90
15834;DHT22;8017;50.812;4.934;2022-09-09T19:26:42;16.90;99.90
15834;DHT22;8017;50.812;4.934;2022-09-09T19:29:44;16.90;99.90
15834;DHT22;8017;50.812;4.934;2022-09-09T19:32:49;17.00;99.90
15834;DHT22;8017;50.812;4.934;2022-09-09T19:35:56;16.90;99.90
15834;DHT22;8017;50.812;4.934;2022-09-09T19:38:58;17.00;99.90
15834;DHT22;8017;50.812;4.934;2022-09-09T19:42:01;17.20;99.90
15834;DHT22;8017;50.812;4.934;2022-09-09T19:45:03;17.30;99.90
15834;DHT22;8017;50.812;4.934;2022-09-09T19:48:08;17.20;99.90
15834;DHT22;8017;50.812;4.934;2022-09-09T19:51:12;17.20;99.90
15834;DHT22;8017;50.812;4.934;2022-09-09T19:54:14;17.10;99.90
15834;DHT22;8017;50.812;4.934;2022-09-09T19:57:16;17.10;99.90
15834;DHT22;8017;50.812;4.934;2022-09-09T20:00:19;17.10;99.90
15834;DHT22;8017;50.812;4.934;2022-09-09T20:03:22;17.10;99.90
15834;DHT22;8017;50.812;4.934;2022-09-09T20:06:28;16.90;99.90